sensor_id;sensor_type;location;lat;lon;timestamp;pressure;altitude;pressure_sealevel;temperature;humidity
33953;BME280;20231;42.710;23.280;2023-03-18T00:01:15;95281.13;;;4.83;59.53
33953;BME280;20231;42.710;23.280;2023-03-18T00:03:41;95356.91;;;5.55;58.95
33953;BME280;20231;42.710;23.280;2023-03-18T00:06:09;95359.34;;;5.62;58.68
33953;BME280;20231;42.710;23.280;2023-03-18T00:08:37;95318.03;;;5.31;58.86
33953;BME280;20231;42.710;23.280;2023-03-18T00:13:39;95329.38;;;5.36;58.75
33953;BME280;20231;42.710;23.280;2023-03-18T00:16:06;95355.38;;;5.43;58.56
33953;BME280;20231;42.710;23.280;2023-03-18T00:18:33;95352.28;;;5.29;59.02
33953;BME280;20231;42.710;23.280;2023-03-18T00:20:59;95333.69;;;4.98;59.55
33953;BME280;20231;42.710;23.280;2023-03-18T00:23:25;95339.56;;;5.21;59.47
33953;BME280;20231;42.710;23.280;2023-03-18T00:25:57;95322.22;;;5.15;59.29
33953;BME280;20231;42.710;23.280;2023-03-18T00:28:32;95299.09;;;4.80;59.78
33953;BME280;20231;42.710;23.280;2023-03-18T00:31:26;95219.22;;;4.56;59.06
33953;BME280;20231;42.710;23.280;2023-03-18T00:37:43;95252.94;;;4.57;59.18
33953;BME280;20231;42.710;23.280;2023-03-18T00:40:21;95207.53;;;4.30;59.51
33953;BME280;20231;42.710;23.280;2023-03-18T00:54:09;95311.03;;;5.03;59.97
33953;BME280;20231;42.710;23.280;2023-03-18T01:00:54;95306.38;;;5.22;59.45
33953;BME280;20231;42.710;23.280;2023-03-18T01:07:30;95228.72;;;4.90;59.06
33953;BME280;20231;42.710;23.280;2023-03-18T01:20:29;95291.91;;;4.87;60.42
33953;BME280;20231;42.710;23.280;2023-03-18T01:23:38;95186.34;;;4.16;60.44
33953;BME280;20231;42.710;23.280;2023-03-18T01:26:47;95296.19;;;4.93;60.23
33953;BME280;20231;42.710;23.280;2023-03-18T01:29:57;95273.91;;;4.74;60.47
33953;BME280;20231;42.710;23.280;2023-03-18T01:32:37;95230.97;;;4.42;60.52
33953;BME280;20231;42.710;23.280;2023-03-18T01:35:38;95233.47;;;4.48;60.46
33953;BME280;20231;42.710;23.280;2023-03-18T01:38:23;95276.22;;;4.87;60.41
33953;BME280;20231;42.710;23.280;2023-03-18T01:40:50;95290.47;;;4.79;60.82
33953;BME280;20231;42.710;23.280;2023-03-18T01:43:24;95214.41;;;4.64;61.38
33953;BME280;20231;42.710;23.280;2023-03-18T01:45:54;95251.63;;;4.71;61.46
33953;BME280;20231;42.710;23.280;2023-03-18T01:48:23;95284.22;;;4.96;61.70
33953;BME280;20231;42.710;23.280;2023-03-18T01:50:58;95235.00;;;4.33;62.50
33953;BME280;20231;42.710;23.280;2023-03-18T01:53:32;95189.91;;;4.10;62.29
33953;BME280;20231;42.710;23.280;2023-03-18T01:56:44;95190.06;;;4.20;62.29
33953;BME280;20231;42.710;23.280;2023-03-18T02:00:10;95235.94;;;4.27;62.19
33953;BME280;20231;42.710;23.280;2023-03-18T02:03:18;95279.06;;;4.57;61.95
33953;BME280;20231;42.710;23.280;2023-03-18T02:09:28;95275.34;;;4.53;61.55
33953;BME280;20231;42.710;23.280;2023-03-18T02:12:04;95279.47;;;4.49;61.79
33953;BME280;20231;42.710;23.280;2023-03-18T02:14:38;95175.75;;;3.94;61.88
33953;BME280;20231;42.710;23.280;2023-03-18T02:17:15;95270.81;;;4.49;62.82
33953;BME280;20231;42.710;23.280;2023-03-18T02:20:04;95215.47;;;3.96;63.45
33953;BME280;20231;42.710;23.280;2023-03-18T02:22:44;95239.94;;;4.07;64.36
33953;BME280;20231;42.710;23.280;2023-03-18T02:34:31;95266.69;;;4.53;63.44
33953;BME280;20231;42.710;23.280;2023-03-18T02:36:59;95194.56;;;4.35;62.60
33953;BME280;20231;42.710;23.280;2023-03-18T02:44:40;95168.19;;;3.81;62.54
33953;BME280;20231;42.710;23.280;2023-03-18T02:47:10;95176.63;;;3.72;62.94
33953;BME280;20231;42.710;23.280;2023-03-18T02:49:38;95237.41;;;4.23;62.06
33953;BME280;20231;42.710;23.280;2023-03-18T02:52:04;95220.59;;;4.30;61.09
33953;BME280;20231;42.710;23.280;2023-03-18T02:54:30;95225.19;;;4.12;61.59
33953;BME280;20231;42.710;23.280;2023-03-18T02:56:57;95166.09;;;3.55;62.23
33953;BME280;20231;42.710;23.280;2023-03-18T02:59:23;95179.16;;;3.95;61.41
33953;BME280;20231;42.710;23.280;2023-03-18T03:01:51;95184.16;;;3.96;61.58
33953;BME280;20231;42.710;23.280;2023-03-18T03:04:19;95162.31;;;3.63;61.58
33953;BME280;20231;42.710;23.280;2023-03-18T03:06:44;95214.31;;;4.04;61.00
33953;BME280;20231;42.710;23.280;2023-03-18T03:09:13;95224.88;;;3.97;61.86
33953;BME280;20231;42.710;23.280;2023-03-18T03:11:41;95255.91;;;4.22;61.65
33953;BME280;20231;42.710;23.280;2023-03-18T03:14:07;95165.81;;;3.80;60.95
33953;BME280;20231;42.710;23.280;2023-03-18T03:16:34;95260.44;;;4.26;61.52
33953;BME280;20231;42.710;23.280;2023-03-18T03:19:00;95264.91;;;4.53;60.93
33953;BME280;20231;42.710;23.280;2023-03-18T03:21:26;95267.50;;;4.53;60.99
33953;BME280;20231;42.710;23.280;2023-03-18T03:23:52;95258.63;;;4.26;61.78
33953;BME280;20231;42.710;23.280;2023-03-18T03:26:19;95278.16;;;4.24;61.79
33953;BME280;20231;42.710;23.280;2023-03-18T03:28:45;95270.47;;;4.06;62.10
33953;BME280;20231;42.710;23.280;2023-03-18T03:31:11;95279.22;;;4.12;62.17
33953;BME280;20231;42.710;23.280;2023-03-18T03:33:41;95285.00;;;4.14;62.22
33953;BME280;20231;42.710;23.280;2023-03-18T03:36:11;95249.38;;;4.08;61.38
33953;BME280;20231;42.710;23.280;2023-03-18T03:38:38;95271.69;;;4.26;60.99
33953;BME280;20231;42.710;23.280;2023-03-18T03:41:06;95274.44;;;4.20;61.21
33953;BME280;20231;42.710;23.280;2023-03-18T03:43:35;95275.22;;;4.21;61.23
33953;BME280;20231;42.710;23.280;2023-03-18T03:46:00;95280.69;;;4.47;60.46
33953;BME280;20231;42.710;23.280;2023-03-18T03:48:26;95277.72;;;4.55;60.04
33953;BME280;20231;42.710;23.280;2023-03-18T03:50:52;95278.59;;;4.32;60.51
33953;BME280;20231;42.710;23.280;2023-03-18T03:53:18;95278.19;;;4.13;61.04
33953;BME280;20231;42.710;23.280;2023-03-18T03:55:44;95284.22;;;4.02;61.29
33953;BME280;20231;42.710;23.280;2023-03-18T03:58:09;95279.72;;;3.86;61.99
33953;BME280;20231;42.710;23.280;2023-03-18T04:00:35;95276.28;;;3.97;62.32
33953;BME280;20231;42.710;23.280;2023-03-18T04:03:02;95279.94;;;3.84;62.61
33953;BME280;20231;42.710;23.280;2023-03-18T04:05:30;95275.84;;;3.77;62.92
33953;BME280;20231;42.710;23.280;2023-03-18T04:07:55;95273.00;;;3.78;62.94
33953;BME280;20231;42.710;23.280;2023-03-18T04:10:28;95279.38;;;3.82;62.87
33953;BME280;20231;42.710;23.280;2023-03-18T04:12:53;95261.97;;;3.99;61.99
33953;BME280;20231;42.710;23.280;2023-03-18T04:15:20;95193.44;;;3.64;60.87
33953;BME280;20231;42.710;23.280;2023-03-18T04:17:47;95184.38;;;3.21;62.02
33953;BME280;20231;42.710;23.280;2023-03-18T04:20:14;95190.28;;;3.28;61.36
33953;BME280;20231;42.710;23.280;2023-03-18T04:22:41;95212.03;;;3.45;60.83
33953;BME280;20231;42.710;23.280;2023-03-18T04:25:07;95240.38;;;3.53;61.13
33953;BME280;20231;42.710;23.280;2023-03-18T04:27:44;95239.34;;;3.43;61.37
33953;BME280;20231;42.710;23.280;2023-03-18T04:30:19;95258.75;;;3.58;60.80
33953;BME280;20231;42.710;23.280;2023-03-18T04:32:48;95317.25;;;3.85;60.90
33953;BME280;20231;42.710;23.280;2023-03-18T04:35:35;95244.34;;;3.21;61.31
33953;BME280;20231;42.710;23.280;2023-03-18T04:38:01;95240.28;;;3.25;61.13
33953;BME280;20231;42.710;23.280;2023-03-18T04:41:02;95285.84;;;3.57;60.99
33953;BME280;20231;42.710;23.280;2023-03-18T04:44:00;95228.06;;;2.74;62.61
33953;BME280;20231;42.710;23.280;2023-03-18T04:47:04;95319.50;;;3.36;63.05
33953;BME280;20231;42.710;23.280;2023-03-18T04:49:29;95330.84;;;3.41;63.01
33953;BME280;20231;42.710;23.280;2023-03-18T04:51:55;95331.22;;;3.56;62.95
33953;BME280;20231;42.710;23.280;2023-03-18T04:54:20;95334.19;;;3.59;62.97
33953;BME280;20231;42.710;23.280;2023-03-18T04:56:46;95332.47;;;3.65;62.67
33953;BME280;20231;42.710;23.280;2023-03-18T04:59:11;95332.66;;;3.52;63.03
33953;BME280;20231;42.710;23.280;2023-03-18T05:01:37;95330.53;;;3.72;62.63
33953;BME280;20231;42.710;23.280;2023-03-18T05:04:02;95332.25;;;3.55;62.39
33953;BME280;20231;42.710;23.280;2023-03-18T05:06:29;95312.81;;;3.51;61.84
33953;BME280;20231;42.710;23.280;2023-03-18T05:08:56;95323.94;;;3.58;61.64
33953;BME280;20231;42.710;23.280;2023-03-18T05:11:23;95335.63;;;3.55;62.12
33953;BME280;20231;42.710;23.280;2023-03-18T05:13:48;95308.06;;;3.48;61.60
33953;BME280;20231;42.710;23.280;2023-03-18T05:16:14;95327.47;;;3.52;62.15
33953;BME280;20231;42.710;23.280;2023-03-18T05:18:39;95313.06;;;3.61;61.50
33953;BME280;20231;42.710;23.280;2023-03-18T05:21:06;95330.31;;;3.85;61.83
33953;BME280;20231;42.710;23.280;2023-03-18T05:23:32;95326.09;;;3.84;62.39
33953;BME280;20231;42.710;23.280;2023-03-18T05:25:57;95322.00;;;3.88;62.51
33953;BME280;20231;42.710;23.280;2023-03-18T05:28:24;95329.88;;;3.76;63.04
33953;BME280;20231;42.710;23.280;2023-03-18T05:30:50;95239.13;;;3.10;63.92
33953;BME280;20231;42.710;23.280;2023-03-18T05:33:18;95211.56;;;3.02;63.71
33953;BME280;20231;42.710;23.280;2023-03-18T05:40:54;95319.75;;;3.68;63.46
33953;BME280;20231;42.710;23.280;2023-03-18T05:43:20;95329.50;;;3.96;63.09
33953;BME280;20231;42.710;23.280;2023-03-18T05:45:46;95335.50;;;4.19;62.44
33953;BME280;20231;42.710;23.280;2023-03-18T05:48:12;95326.75;;;4.14;62.30
33953;BME280;20231;42.710;23.280;2023-03-18T05:50:40;95350.84;;;4.16;62.46
33953;BME280;20231;42.710;23.280;2023-03-18T05:53:07;95343.34;;;4.08;62.78
33953;BME280;20231;42.710;23.280;2023-03-18T05:55:32;95348.78;;;4.18;62.77
33953;BME280;20231;42.710;23.280;2023-03-18T05:57:59;95341.31;;;4.10;62.39
33953;BME280;20231;42.710;23.280;2023-03-18T06:00:27;95329.28;;;3.97;62.25
33953;BME280;20231;42.710;23.280;2023-03-18T06:02:54;95353.88;;;4.13;62.13
33953;BME280;20231;42.710;23.280;2023-03-18T06:05:21;95360.03;;;4.07;62.66
33953;BME280;20231;42.710;23.280;2023-03-18T06:07:47;95356.16;;;3.52;64.27
33953;BME280;20231;42.710;23.280;2023-03-18T06:10:13;95350.84;;;3.93;63.24
33953;BME280;20231;42.710;23.280;2023-03-18T06:12:39;95332.44;;;3.88;62.91
33953;BME280;20231;42.710;23.280;2023-03-18T06:15:07;95355.94;;;3.99;63.79
33953;BME280;20231;42.710;23.280;2023-03-18T06:17:33;95364.03;;;4.09;63.19
33953;BME280;20231;42.710;23.280;2023-03-18T06:19:59;95359.81;;;4.08;63.19
33953;BME280;20231;42.710;23.280;2023-03-18T06:22:25;95347.44;;;3.92;63.44
33953;BME280;20231;42.710;23.280;2023-03-18T06:24:53;95348.69;;;4.01;63.58
33953;BME280;20231;42.710;23.280;2023-03-18T06:27:19;95354.59;;;3.74;64.69
33953;BME280;20231;42.710;23.280;2023-03-18T06:29:44;95359.59;;;3.87;64.47
33953;BME280;20231;42.710;23.280;2023-03-18T06:32:10;95342.69;;;3.78;64.50
33953;BME280;20231;42.710;23.280;2023-03-18T06:34:36;95334.16;;;3.71;64.96
33953;BME280;20231;42.710;23.280;2023-03-18T06:37:03;95333.03;;;3.78;64.86
33953;BME280;20231;42.710;23.280;2023-03-18T06:39:30;95327.47;;;3.86;64.47
33953;BME280;20231;42.710;23.280;2023-03-18T06:41:55;95286.06;;;3.67;64.57
33953;BME280;20231;42.710;23.280;2023-03-18T06:44:22;95329.50;;;3.96;64.99
33953;BME280;20231;42.710;23.280;2023-03-18T06:46:48;95322.56;;;4.13;68.61
33953;BME280;20231;42.710;23.280;2023-03-18T06:49:14;95288.78;;;3.83;64.92
33953;BME280;20231;42.710;23.280;2023-03-18T06:51:41;95312.53;;;4.99;78.16
33953;BME280;20231;42.710;23.280;2023-03-18T06:54:07;95341.63;;;5.03;64.94
33953;BME280;20231;42.710;23.280;2023-03-18T06:56:34;95349.16;;;4.88;64.08
33953;BME280;20231;42.710;23.280;2023-03-18T06:59:02;95345.53;;;4.89;64.02
33953;BME280;20231;42.710;23.280;2023-03-18T07:01:28;95353.09;;;4.74;64.56
33953;BME280;20231;42.710;23.280;2023-03-18T07:03:54;95324.34;;;4.74;64.07
33953;BME280;20231;42.710;23.280;2023-03-18T07:06:20;95336.19;;;4.65;64.54
33953;BME280;20231;42.710;23.280;2023-03-18T07:08:46;95330.53;;;4.85;64.18
33953;BME280;20231;42.710;23.280;2023-03-18T07:11:11;95310.47;;;4.74;64.44
33953;BME280;20231;42.710;23.280;2023-03-18T07:13:36;95349.97;;;4.89;64.48
33953;BME280;20231;42.710;23.280;2023-03-18T07:16:02;95323.59;;;4.90;63.84
33953;BME280;20231;42.710;23.280;2023-03-18T07:18:28;95318.38;;;4.90;63.78
33953;BME280;20231;42.710;23.280;2023-03-18T07:20:54;95327.84;;;5.07;63.39
33953;BME280;20231;42.710;23.280;2023-03-18T07:23:20;95331.88;;;5.15;63.26
33953;BME280;20231;42.710;23.280;2023-03-18T07:25:46;95324.59;;;5.33;64.49
33953;BME280;20231;42.710;23.280;2023-03-18T07:28:12;95323.09;;;5.21;62.99
33953;BME280;20231;42.710;23.280;2023-03-18T07:30:37;95340.78;;;5.30;63.23
33953;BME280;20231;42.710;23.280;2023-03-18T07:33:04;95309.97;;;5.32;62.78
33953;BME280;20231;42.710;23.280;2023-03-18T07:35:30;95347.66;;;5.64;64.81
33953;BME280;20231;42.710;23.280;2023-03-18T07:37:55;95331.19;;;5.52;63.46
33953;BME280;20231;42.710;23.280;2023-03-18T07:40:21;95339.22;;;5.62;63.58
33953;BME280;20231;42.710;23.280;2023-03-18T07:42:47;95348.38;;;5.76;62.67
33953;BME280;20231;42.710;23.280;2023-03-18T07:45:15;95336.88;;;5.61;62.81
33953;BME280;20231;42.710;23.280;2023-03-18T07:47:41;95347.00;;;5.73;62.62
33953;BME280;20231;42.710;23.280;2023-03-18T07:50:08;95320.19;;;5.50;62.63
33953;BME280;20231;42.710;23.280;2023-03-18T07:52:33;95335.66;;;5.68;62.39
33953;BME280;20231;42.710;23.280;2023-03-18T07:54:59;95334.66;;;5.85;61.92
33953;BME280;20231;42.710;23.280;2023-03-18T07:57:26;95328.78;;;5.78;62.11
33953;BME280;20231;42.710;23.280;2023-03-18T07:59:51;95319.47;;;5.71;62.39
33953;BME280;20231;42.710;23.280;2023-03-18T08:02:16;95331.63;;;5.93;61.77
33953;BME280;20231;42.710;23.280;2023-03-18T08:04:42;95329.38;;;6.02;61.82
33953;BME280;20231;42.710;23.280;2023-03-18T08:07:08;95340.31;;;6.15;61.46
33953;BME280;20231;42.710;23.280;2023-03-18T08:09:34;95330.63;;;6.16;61.22
33953;BME280;20231;42.710;23.280;2023-03-18T08:12:00;95331.50;;;6.21;60.77
33953;BME280;20231;42.710;23.280;2023-03-18T08:14:26;95315.22;;;6.19;60.53
33953;BME280;20231;42.710;23.280;2023-03-18T08:16:53;95319.41;;;6.37;60.43
33953;BME280;20231;42.710;23.280;2023-03-18T08:19:18;95308.53;;;6.28;60.90
33953;BME280;20231;42.710;23.280;2023-03-18T08:21:44;95323.34;;;6.39;61.01
33953;BME280;20231;42.710;23.280;2023-03-18T08:24:09;95325.00;;;6.45;60.91
33953;BME280;20231;42.710;23.280;2023-03-18T08:26:35;95331.78;;;6.62;60.42
33953;BME280;20231;42.710;23.280;2023-03-18T08:29:01;95344.28;;;6.77;61.01
33953;BME280;20231;42.710;23.280;2023-03-18T08:31:26;95336.97;;;6.79;60.81
33953;BME280;20231;42.710;23.280;2023-03-18T08:33:52;95335.22;;;6.89;60.68
33953;BME280;20231;42.710;23.280;2023-03-18T08:36:20;95320.28;;;6.90;60.34
33953;BME280;20231;42.710;23.280;2023-03-18T08:38:45;95338.63;;;7.11;59.77
33953;BME280;20231;42.710;23.280;2023-03-18T08:41:11;95334.28;;;7.21;59.30
33953;BME280;20231;42.710;23.280;2023-03-18T08:43:36;95324.56;;;7.22;58.60
33953;BME280;20231;42.710;23.280;2023-03-18T08:46:01;95317.19;;;7.19;58.09
33953;BME280;20231;42.710;23.280;2023-03-18T08:48:27;95312.97;;;7.18;57.76
33953;BME280;20231;42.710;23.280;2023-03-18T08:50:53;95329.41;;;7.35;58.36
33953;BME280;20231;42.710;23.280;2023-03-18T08:53:18;95333.41;;;7.42;58.01
33953;BME280;20231;42.710;23.280;2023-03-18T08:55:45;95328.69;;;7.44;58.01
33953;BME280;20231;42.710;23.280;2023-03-18T08:58:11;95315.06;;;7.47;57.80
33953;BME280;20231;42.710;23.280;2023-03-18T09:00:38;95305.81;;;7.40;57.13
33953;BME280;20231;42.710;23.280;2023-03-18T09:03:06;95314.09;;;7.53;56.38
33953;BME280;20231;42.710;23.280;2023-03-18T09:05:32;95324.63;;;7.58;56.83
33953;BME280;20231;42.710;23.280;2023-03-18T09:07:58;95321.34;;;7.78;56.60
33953;BME280;20231;42.710;23.280;2023-03-18T09:10:25;95309.56;;;7.80;56.41
33953;BME280;20231;42.710;23.280;2023-03-18T09:12:50;95319.59;;;7.88;56.59
33953;BME280;20231;42.710;23.280;2023-03-18T09:15:17;95338.75;;;8.15;55.63
33953;BME280;20231;42.710;23.280;2023-03-18T09:17:45;95338.78;;;8.20;55.04
33953;BME280;20231;42.710;23.280;2023-03-18T09:20:12;95321.16;;;8.20;54.95
33953;BME280;20231;42.710;23.280;2023-03-18T09:22:39;95311.44;;;8.21;53.62
33953;BME280;20231;42.710;23.280;2023-03-18T09:25:05;95329.13;;;8.30;53.15
33953;BME280;20231;42.710;23.280;2023-03-18T09:27:31;95334.44;;;8.45;53.42
33953;BME280;20231;42.710;23.280;2023-03-18T09:29:57;95331.59;;;8.56;51.00
33953;BME280;20231;42.710;23.280;2023-03-18T09:32:23;95324.22;;;8.53;51.17
33953;BME280;20231;42.710;23.280;2023-03-18T09:34:49;95332.69;;;8.65;50.37
33953;BME280;20231;42.710;23.280;2023-03-18T09:37:16;95314.78;;;8.57;50.06
33953;BME280;20231;42.710;23.280;2023-03-18T09:39:43;95338.59;;;8.92;49.20
33953;BME280;20231;42.710;23.280;2023-03-18T09:44:37;95317.88;;;9.30;55.89
33953;BME280;20231;42.710;23.280;2023-03-18T09:55:28;95324.50;;;9.53;54.56
33953;BME280;20231;42.710;23.280;2023-03-18T09:58:01;95323.69;;;9.37;52.14
33953;BME280;20231;42.710;23.280;2023-03-18T10:00:36;95324.72;;;9.31;52.04
33953;BME280;20231;42.710;23.280;2023-03-18T10:03:10;95329.50;;;9.34;53.50
33953;BME280;20231;42.710;23.280;2023-03-18T10:05:51;95323.44;;;9.44;52.51
33953;BME280;20231;42.710;23.280;2023-03-18T10:11:04;95328.19;;;9.52;54.22
33953;BME280;20231;42.710;23.280;2023-03-18T10:13:34;95310.56;;;9.52;53.13
33953;BME280;20231;42.710;23.280;2023-03-18T10:16:03;95301.34;;;9.55;53.21
33953;BME280;20231;42.710;23.280;2023-03-18T10:18:35;95314.22;;;9.61;52.16
33953;BME280;20231;42.710;23.280;2023-03-18T10:26:31;95309.75;;;9.67;49.70
33953;BME280;20231;42.710;23.280;2023-03-18T10:31:37;95310.81;;;9.81;47.98
33953;BME280;20231;42.710;23.280;2023-03-18T10:34:22;95315.03;;;9.92;49.08
33953;BME280;20231;42.710;23.280;2023-03-18T10:37:03;95306.63;;;9.99;48.12
33953;BME280;20231;42.710;23.280;2023-03-18T10:39:30;95299.00;;;9.98;49.40
33953;BME280;20231;42.710;23.280;2023-03-18T10:41:59;95305.53;;;10.15;49.39
33953;BME280;20231;42.710;23.280;2023-03-18T10:44:33;95289.44;;;10.22;47.69
33953;BME280;20231;42.710;23.280;2023-03-18T10:47:32;95303.41;;;10.32;44.76
33953;BME280;20231;42.710;23.280;2023-03-18T10:50:20;95296.06;;;10.09;45.36
33953;BME280;20231;42.710;23.280;2023-03-18T10:55:24;95293.91;;;10.21;46.20
33953;BME280;20231;42.710;23.280;2023-03-18T10:57:53;95302.34;;;10.28;48.26
33953;BME280;20231;42.710;23.280;2023-03-18T11:00:30;95293.09;;;10.31;47.49
33953;BME280;20231;42.710;23.280;2023-03-18T11:02:57;95272.31;;;10.09;47.07
33953;BME280;20231;42.710;23.280;2023-03-18T11:05:35;95300.28;;;10.10;46.85
33953;BME280;20231;42.710;23.280;2023-03-18T11:08:02;95303.47;;;10.07;48.00
33953;BME280;20231;42.710;23.280;2023-03-18T11:10:37;95274.97;;;9.90;47.69
33953;BME280;20231;42.710;23.280;2023-03-18T11:13:15;95302.88;;;9.95;47.43
33953;BME280;20231;42.710;23.280;2023-03-18T11:15:47;95305.78;;;9.94;46.80
33953;BME280;20231;42.710;23.280;2023-03-18T11:18:16;95303.19;;;9.99;46.67
33953;BME280;20231;42.710;23.280;2023-03-18T11:20:43;95305.78;;;9.94;46.17
33953;BME280;20231;42.710;23.280;2023-03-18T11:25:44;95292.91;;;9.88;46.32
33953;BME280;20231;42.710;23.280;2023-03-18T11:28:19;95298.19;;;9.97;45.38
33953;BME280;20231;42.710;23.280;2023-03-18T11:30:49;95296.56;;;9.96;45.78
33953;BME280;20231;42.710;23.280;2023-03-18T11:33:17;95286.03;;;10.16;50.35
33953;BME280;20231;42.710;23.280;2023-03-18T11:35:56;95275.44;;;10.36;49.78
33953;BME280;20231;42.710;23.280;2023-03-18T11:38:31;95274.63;;;10.46;45.78
33953;BME280;20231;42.710;23.280;2023-03-18T11:41:08;95280.53;;;10.81;41.94
33953;BME280;20231;42.710;23.280;2023-03-18T11:43:37;95286.41;;;10.68;42.20
33953;BME280;20231;42.710;23.280;2023-03-18T11:46:04;95283.69;;;10.88;41.80
33953;BME280;20231;42.710;23.280;2023-03-18T11:48:34;95271.47;;;10.97;42.85
33953;BME280;20231;42.710;23.280;2023-03-18T11:56:34;95272.25;;;11.40;39.89
33953;BME280;20231;42.710;23.280;2023-03-18T11:59:22;95278.53;;;11.54;39.98
33953;BME280;20231;42.710;23.280;2023-03-18T12:07:25;95282.81;;;11.84;39.61
33953;BME280;20231;42.710;23.280;2023-03-18T12:23:03;95283.28;;;12.66;37.05
33953;BME280;20231;42.710;23.280;2023-03-18T12:31:05;95270.97;;;12.75;36.56
33953;BME280;20231;42.710;23.280;2023-03-18T12:33:50;95268.22;;;12.84;35.04
33953;BME280;20231;42.710;23.280;2023-03-18T12:44:40;95272.06;;;12.97;33.53
33953;BME280;20231;42.710;23.280;2023-03-18T12:47:19;95273.78;;;12.88;34.02
33953;BME280;20231;42.710;23.280;2023-03-18T12:49:51;95274.97;;;12.72;34.40
33953;BME280;20231;42.710;23.280;2023-03-18T12:55:03;95278.22;;;12.92;33.67
33953;BME280;20231;42.710;23.280;2023-03-18T13:00:00;95271.56;;;12.95;34.08
33953;BME280;20231;42.710;23.280;2023-03-18T13:10:53;95276.66;;;13.47;32.90
33953;BME280;20231;42.710;23.280;2023-03-18T13:13:22;95266.56;;;13.49;32.95
33953;BME280;20231;42.710;23.280;2023-03-18T13:15:51;95267.28;;;13.54;32.44
33953;BME280;20231;42.710;23.280;2023-03-18T13:18:26;95271.44;;;13.60;31.59
33953;BME280;20231;42.710;23.280;2023-03-18T13:20:56;95270.13;;;13.57;31.61
33953;BME280;20231;42.710;23.280;2023-03-18T13:26:50;95281.47;;;13.26;32.77
33953;BME280;20231;42.710;23.280;2023-03-18T13:29:41;95267.63;;;13.48;32.86
33953;BME280;20231;42.710;23.280;2023-03-18T13:35:09;95266.22;;;13.37;32.65
33953;BME280;20231;42.710;23.280;2023-03-18T13:42:49;95262.56;;;13.14;32.69
33953;BME280;20231;42.710;23.280;2023-03-18T13:45:32;95269.56;;;13.05;31.97
33953;BME280;20231;42.710;23.280;2023-03-18T13:48:07;95275.44;;;13.02;32.76
33953;BME280;20231;42.710;23.280;2023-03-18T13:50:42;95262.25;;;12.97;32.69
33953;BME280;20231;42.710;23.280;2023-03-18T13:53:37;95265.75;;;12.93;31.87
33953;BME280;20231;42.710;23.280;2023-03-18T13:56:04;95273.91;;;12.73;32.73
33953;BME280;20231;42.710;23.280;2023-03-18T13:58:44;95262.16;;;12.61;33.40
33953;BME280;20231;42.710;23.280;2023-03-18T14:01:15;95256.06;;;12.60;32.47
33953;BME280;20231;42.710;23.280;2023-03-18T14:16:14;95246.13;;;13.49;32.16
33953;BME280;20231;42.710;23.280;2023-03-18T14:18:55;95243.47;;;13.67;31.93
33953;BME280;20231;42.710;23.280;2023-03-18T14:21:26;95234.88;;;13.89;30.33
33953;BME280;20231;42.710;23.280;2023-03-18T14:24:11;95238.81;;;13.91;30.67
33953;BME280;20231;42.710;23.280;2023-03-18T14:26:37;95246.88;;;14.00;30.42
33953;BME280;20231;42.710;23.280;2023-03-18T14:39:44;95253.53;;;13.84;30.70
33953;BME280;20231;42.710;23.280;2023-03-18T14:47:56;95257.69;;;13.90;47.19
33953;BME280;20231;42.710;23.280;2023-03-18T14:50:48;95255.34;;;14.02;41.99
33953;BME280;20231;42.710;23.280;2023-03-18T14:56:02;95248.66;;;14.23;43.16
33953;BME280;20231;42.710;23.280;2023-03-18T14:58:28;95260.94;;;14.32;43.51
33953;BME280;20231;42.710;23.280;2023-03-18T15:01:06;95251.50;;;14.26;41.55
33953;BME280;20231;42.710;23.280;2023-03-18T15:03:34;95253.59;;;14.11;40.40
33953;BME280;20231;42.710;23.280;2023-03-18T15:06:04;95248.97;;;14.03;40.39
33953;BME280;20231;42.710;23.280;2023-03-18T15:08:34;95252.56;;;13.93;37.49
33953;BME280;20231;42.710;23.280;2023-03-18T15:11:03;95255.44;;;13.97;39.62
33953;BME280;20231;42.710;23.280;2023-03-18T15:13:40;95251.28;;;13.91;39.69
33953;BME280;20231;42.710;23.280;2023-03-18T15:16:10;95262.81;;;14.00;36.96
33953;BME280;20231;42.710;23.280;2023-03-18T15:18:38;95243.75;;;13.98;39.99
33953;BME280;20231;42.710;23.280;2023-03-18T15:21:17;95268.00;;;14.05;38.51
33953;BME280;20231;42.710;23.280;2023-03-18T15:23:54;95268.22;;;14.08;36.93
33953;BME280;20231;42.710;23.280;2023-03-18T15:26:29;95266.59;;;14.12;36.42
33953;BME280;20231;42.710;23.280;2023-03-18T15:29:00;95271.63;;;14.14;38.03
33953;BME280;20231;42.710;23.280;2023-03-18T15:31:28;95273.81;;;14.07;36.04
33953;BME280;20231;42.710;23.280;2023-03-18T15:34:04;95186.84;;;13.58;37.35
33953;BME280;20231;42.710;23.280;2023-03-18T15:36:29;95286.38;;;14.20;37.64
33953;BME280;20231;42.710;23.280;2023-03-18T15:38:55;95275.19;;;14.04;36.89
33953;BME280;20231;42.710;23.280;2023-03-18T15:41:21;95285.19;;;14.12;36.20
33953;BME280;20231;42.710;23.280;2023-03-18T15:43:49;95289.31;;;14.18;37.36
33953;BME280;20231;42.710;23.280;2023-03-18T15:46:29;95283.81;;;14.15;36.56
33953;BME280;20231;42.710;23.280;2023-03-18T15:49:01;95289.13;;;14.15;35.10
33953;BME280;20231;42.710;23.280;2023-03-18T15:51:32;95305.34;;;14.27;35.92
33953;BME280;20231;42.710;23.280;2023-03-18T15:54:05;95304.44;;;14.18;35.71
33953;BME280;20231;42.710;23.280;2023-03-18T15:56:43;95297.66;;;14.12;35.62
33953;BME280;20231;42.710;23.280;2023-03-18T15:59:25;95308.19;;;14.17;35.25
33953;BME280;20231;42.710;23.280;2023-03-18T16:01:58;95308.13;;;14.03;35.67
33953;BME280;20231;42.710;23.280;2023-03-18T16:04:29;95320.00;;;14.06;34.78
33953;BME280;20231;42.710;23.280;2023-03-18T16:06:55;95318.50;;;14.00;35.15
33953;BME280;20231;42.710;23.280;2023-03-18T16:09:22;95330.63;;;14.06;34.64
33953;BME280;20231;42.710;23.280;2023-03-18T16:11:57;95329.03;;;14.05;33.68
33953;BME280;20231;42.710;23.280;2023-03-18T16:14:27;95311.03;;;13.88;35.04
33953;BME280;20231;42.710;23.280;2023-03-18T16:16:55;95329.72;;;13.97;34.42